Time;durP1;ratioP1;P1;durP2;ratioP2;P2;SDS_P1;SDS_P2;PMS_P1;PMS_P2;Temp;Humidity;BMP_temperature;BMP_pressure;BME280_temperature;BME280_humidity;BME280_pressure;Samples;Min_cycle;Max_cycle;Signal;HPM_P1;HPM_P2
2023/05/04 00:01:42;;;;;;;18.98;7.85;;;;;;;;;;10354240;28;20042;-84
2023/05/04 00:06:45;;;;;;;18.90;7.88;;;;;;;;;;10348541;28;20380;-84
2023/05/04 00:11:49;;;;;;;23.17;9.18;;;;;;;;;;10343978;28;20039;-84
2023/05/04 00:16:52;;;;;;;19.95;8.60;;;;;;;;;;10351777;28;20061;-85
2023/05/04 00:21:55;;;;;;;21.13;8.48;;;;;;;;;;10356698;28;20089;-84
2023/05/04 00:26:59;;;;;;;22.33;8.55;;;;;;;;;;10352775;28;20061;-83
2023/05/04 00:32:02;;;;;;;21.38;9.00;;;;;;;;;;10349474;28;20053;-85
2023/05/04 00:37:06;;;;;;;20.27;8.30;;;;;;;;;;10348287;28;20424;-85
2023/05/04 00:42:10;;;;;;;24.23;9.40;;;;;;;;;;10346000;28;20057;-84
2023/05/04 00:47:15;;;;;;;20.73;8.60;;;;;;;;;;10354063;28;20308;-84
2023/05/04 00:52:19;;;;;;;17.00;7.90;;;;;;;;;;10342331;28;20054;-83
2023/05/04 00:57:22;;;;;;;21.73;8.90;;;;;;;;;;10348749;28;20115;-84
2023/05/04 01:02:25;;;;;;;;;;;;;;;;;;10355658;28;20052;-84
2023/05/04 01:07:35;;;;;;;20.60;7.68;;;;;;;;;;10353124;28;20036;-84
2023/05/04 01:12:41;;;;;;;18.77;7.78;;;;;;;;;;10347996;28;20038;-84
2023/05/04 01:17:44;;;;;;;21.92;8.40;;;;;;;;;;10349666;28;20499;-84
2023/05/04 01:22:49;;;;;;;18.23;7.80;;;;;;;;;;10346824;28;20092;-83
2023/05/04 01:27:54;;;;;;;21.50;8.20;;;;;;;;;;10346190;28;20046;-84
2023/05/04 01:32:57;;;;;;;20.25;8.07;;;;;;;;;;10349503;28;20120;-85
2023/05/04 01:38:01;;;;;;;21.63;8.45;;;;;;;;;;10348947;28;20050;-85
2023/05/04 01:43:04;;;;;;;20.58;8.13;;;;;;;;;;10343865;28;20043;-84
2023/05/04 01:48:07;;;;;;;21.15;9.23;;;;;;;;;;10347315;28;20053;-84
2023/05/04 01:53:12;;;;;;;20.93;8.10;;;;;;;;;;10343133;28;20038;-84
2023/05/04 01:58:16;;;;;;;;;;;;;;;;;;10350199;28;20053;-84
2023/05/04 02:03:20;;;;;;;19.63;7.57;;;;;;;;;;10343321;28;19926;-85
2023/05/04 02:08:25;;;;;;;22.03;8.50;;;;;;;;;;10346281;28;20053;-84
2023/05/04 02:13:28;;;;;;;19.08;7.97;;;;;;;;;;10340459;28;20309;-85
2023/05/04 02:18:30;;;;;;;21.55;8.73;;;;;;;;;;10350164;28;20688;-84
2023/05/04 02:23:35;;;;;;;19.88;8.50;;;;;;;;;;10333200;28;20480;-84
2023/05/04 02:28:38;;;;;;;18.25;8.10;;;;;;;;;;10342832;28;20042;-84
2023/05/04 02:33:41;;;;;;;24.80;8.13;;;;;;;;;;10349145;28;20447;-85
2023/05/04 02:38:45;;;;;;;15.07;7.22;;;;;;;;;;10350414;28;20510;-85
2023/05/04 02:43:49;;;;;;;23.65;8.07;;;;;;;;;;10352217;28;20491;-85
2023/05/04 02:48:52;;;;;;;18.45;7.15;;;;;;;;;;10342358;28;20034;-85
2023/05/04 02:53:56;;;;;;;22.45;8.43;;;;;;;;;;10344340;28;20076;-86
2023/05/04 02:58:58;;;;;;;24.00;8.30;;;;;;;;;;10352328;28;20444;-86
2023/05/04 03:04:02;;;;;;;20.88;8.70;;;;;;;;;;10357650;28;20158;-84
2023/05/04 03:09:06;;;;;;;22.80;8.90;;;;;;;;;;10350939;28;20065;-85
2023/05/04 03:14:09;;;;;;;20.88;8.75;;;;;;;;;;10357164;28;20034;-85
2023/05/04 03:19:12;;;;;;;20.13;9.07;;;;;;;;;;10355759;28;20491;-84
2023/05/04 03:24:17;;;;;;;19.90;8.02;;;;;;;;;;10352107;28;20046;-86
2023/05/04 03:29:20;;;;;;;21.92;7.93;;;;;;;;;;10355661;28;20365;-85
2023/05/04 03:34:23;;;;;;;23.83;8.85;;;;;;;;;;10350340;28;20053;-86
2023/05/04 03:39:27;;;;;;;19.60;8.05;;;;;;;;;;10348993;28;20046;-86
2023/05/04 03:44:30;;;;;;;17.27;7.22;;;;;;;;;;10355877;28;20384;-85
2023/05/04 03:49:33;;;;;;;19.98;8.65;;;;;;;;;;10355409;28;20037;-84
2023/05/04 03:54:38;;;;;;;21.97;9.13;;;;;;;;;;10356246;28;20120;-85
2023/05/04 03:59:41;;;;;;;6.15;2.45;;;;;;;;;;10347170;28;20043;-85
2023/05/04 04:04:44;;;;;;;21.08;9.68;;;;;;;;;;10346854;28;20041;-85
2023/05/04 04:09:48;;;;;;;22.05;8.20;;;;;;;;;;10349424;28;20046;-84
2023/05/04 04:14:51;;;;;;;18.80;7.75;;;;;;;;;;10350518;28;20052;-85
2023/05/04 04:19:54;;;;;;;23.83;8.73;;;;;;;;;;10354478;28;20356;-84
2023/05/04 04:24:59;;;;;;;24.60;8.30;;;;;;;;;;10352043;28;20049;-84
2023/05/04 04:30:02;;;;;;;23.77;8.43;;;;;;;;;;10350782;28;20073;-84
2023/05/04 04:35:07;;;;;;;18.13;8.00;;;;;;;;;;10351053;28;20146;-84
2023/05/04 04:40:12;;;;;;;19.40;6.82;;;;;;;;;;10351416;28;20057;-83
2023/05/04 04:45:15;;;;;;;20.30;8.38;;;;;;;;;;10351767;28;20060;-85
2023/05/04 04:50:18;;;;;;;20.23;7.47;;;;;;;;;;10348148;28;20034;-85
2023/05/04 04:55:24;;;;;;;16.50;6.47;;;;;;;;;;10355944;28;20506;-85
2023/05/04 05:00:27;;;;;;;21.58;9.15;;;;;;;;;;10347537;28;20813;-85
2023/05/04 05:05:30;;;;;;;21.42;8.15;;;;;;;;;;10343738;28;20060;-84
2023/05/04 05:10:35;;;;;;;13.38;5.82;;;;;;;;;;10349564;28;20097;-85
2023/05/04 05:15:38;;;;;;;12.75;5.28;;;;;;;;;;10362140;28;20464;-84
2023/05/04 05:20:41;;;;;;;19.52;9.35;;;;;;;;;;10344630;28;20081;-85
2023/05/04 05:25:45;;;;;;;20.60;10.18;;;;;;;;;;10349263;28;20054;-85
2023/05/04 05:30:48;;;;;;;17.27;8.40;;;;;;;;;;10347982;28;20038;-84
2023/05/04 05:35:51;;;;;;;17.63;6.10;;;;;;;;;;10346867;28;20442;-84
2023/05/04 05:40:55;;;;;;;15.20;6.10;;;;;;;;;;10344499;28;20309;-86
2023/05/04 05:45:58;;;;;;;15.68;6.55;;;;;;;;;;10351176;28;20049;-84
2023/05/04 05:51:00;;;;;;;16.42;6.47;;;;;;;;;;10343617;28;20156;-85
2023/05/04 05:56:05;;;;;;;17.45;7.70;;;;;;;;;;10353387;28;20076;-84
2023/05/04 06:01:08;;;;;;;16.35;6.82;;;;;;;;;;10346788;28;20045;-85
2023/05/04 06:06:11;;;;;;;23.27;7.38;;;;;;;;;;10347217;28;20050;-83
2023/05/04 06:11:15;;;;;;;20.77;8.85;;;;;;;;;;10343776;28;20046;-84
2023/05/04 06:16:18;;;;;;;21.17;8.68;;;;;;;;;;10348269;28;20438;-84
2023/05/04 06:21:20;;;;;;;17.30;7.82;;;;;;;;;;10340941;28;20104;-83
2023/05/04 06:26:24;;;;;;;19.77;7.93;;;;;;;;;;10348830;28;20068;-84
2023/05/04 06:31:27;;;;;;;19.25;8.18;;;;;;;;;;10348407;28;20550;-85
2023/05/04 06:36:30;;;;;;;15.45;7.13;;;;;;;;;;10352646;28;20050;-84
2023/05/04 06:41:34;;;;;;;15.88;7.18;;;;;;;;;;10353915;28;20045;-84
2023/05/04 06:46:37;;;;;;;18.35;6.97;;;;;;;;;;10357230;28;20046;-85
2023/05/04 06:51:40;;;;;;;12.60;5.40;;;;;;;;;;10355182;28;20127;-85
2023/05/04 06:56:44;;;;;;;5.70;2.75;;;;;;;;;;10356804;28;20491;-84
2023/05/04 07:01:46;;;;;;;;;;;;;;;;;;10358534;28;20372;-85
2023/05/04 07:06:50;;;;;;;11.48;5.60;;;;;;;;;;10361286;28;19925;-85
2023/05/04 07:11:54;;;;;;;13.57;6.10;;;;;;;;;;10352233;28;20053;-87
2023/05/04 07:16:56;;;;;;;;;;;;;;;;;;10357373;28;20046;-84
2023/05/04 07:21:59;;;;;;;7.25;4.53;;;;;;;;;;10349337;28;20438;-85
2023/05/04 07:27:03;;;;;;;8.60;4.82;;;;;;;;;;10358279;28;20213;-85
2023/05/04 07:32:06;;;;;;;8.05;4.47;;;;;;;;;;10356654;28;20042;-86
2023/05/04 07:37:08;;;;;;;9.37;4.87;;;;;;;;;;10364557;28;20045;-84
2023/05/04 07:42:12;;;;;;;8.52;5.30;;;;;;;;;;10361283;28;20619;-84
2023/05/04 07:47:15;;;;;;;6.45;4.30;;;;;;;;;;10355992;28;20480;-85
2023/05/04 07:52:17;;;;;;;8.20;4.88;;;;;;;;;;10351725;28;20110;-85
2023/05/04 07:57:21;;;;;;;7.65;5.60;;;;;;;;;;10355258;28;20081;-86
2023/05/04 08:02:24;;;;;;;8.10;4.97;;;;;;;;;;10354981;28;20526;-85
2023/05/04 08:07:27;;;;;;;6.70;4.60;;;;;;;;;;10356654;28;20168;-85
2023/05/04 08:12:31;;;;;;;7.43;4.63;;;;;;;;;;10356997;28;20502;-87
2023/05/04 08:17:34;;;;;;;6.20;4.82;;;;;;;;;;10351974;28;20085;-87
2023/05/04 08:22:37;;;;;;;7.97;5.18;;;;;;;;;;10359428;28;20041;-87
2023/05/04 08:27:41;;;;;;;4.10;3.60;;;;;;;;;;10350058;28;20048;-86
2023/05/04 08:32:44;;;;;;;4.88;3.85;;;;;;;;;;10349486;28;20038;-86
2023/05/04 08:37:47;;;;;;;7.80;4.70;;;;;;;;;;10354882;28;20096;-86
2023/05/04 08:42:51;;;;;;;6.22;4.72;;;;;;;;;;10345072;28;20038;-85
2023/05/04 08:47:54;;;;;;;5.57;4.47;;;;;;;;;;10349068;28;20499;-86
2023/05/04 08:52:59;;;;;;;6.93;4.63;;;;;;;;;;10355977;28;20073;-87
2023/05/04 08:58:07;;;;;;;5.78;4.70;;;;;;;;;;10352527;28;20048;-87
2023/05/04 09:03:11;;;;;;;5.28;4.40;;;;;;;;;;10350291;28;20053;-88
2023/05/04 09:08:15;;;;;;;5.55;4.55;;;;;;;;;;10357258;28;20359;-86
2023/05/04 09:13:19;;;;;;;5.55;4.85;;;;;;;;;;10356378;28;20380;-86
2023/05/04 09:18:21;;;;;;;5.07;4.22;;;;;;;;;;10354542;28;20464;-87
2023/05/04 09:23:25;;;;;;;5.82;4.63;;;;;;;;;;10348334;28;20372;-87
2023/05/04 09:28:37;;;;;;;6.85;6.13;;;;;;;;;;10350439;28;20094;-86
2023/05/04 09:33:40;;;;;;;5.00;4.53;;;;;;;;;;10349132;28;20714;-87
2023/05/04 09:38:43;;;;;;;7.78;4.93;;;;;;;;;;10349986;28;20046;-86
2023/05/04 09:43:47;;;;;;;6.82;5.05;;;;;;;;;;10350028;28;20045;-87
2023/05/04 09:48:50;;;;;;;6.35;5.13;;;;;;;;;;10349027;28;20085;-87
2023/05/04 09:53:53;;;;;;;5.63;4.90;;;;;;;;;;10353015;28;20125;-86
2023/05/04 09:58:58;;;;;;;7.28;5.25;;;;;;;;;;10349431;28;20137;-86
2023/05/04 10:04:01;;;;;;;7.72;5.50;;;;;;;;;;10351933;28;20034;-85
2023/05/04 10:09:04;;;;;;;6.93;5.45;;;;;;;;;;10357668;28;20082;-87
2023/05/04 10:14:08;;;;;;;5.50;4.88;;;;;;;;;;10349322;28;20416;-86
2023/05/04 10:19:24;;;;;;;6.72;5.45;;;;;;;;;;10347319;28;20153;-87
2023/05/04 10:24:42;;;;;;;5.70;5.10;;;;;;;;;;10342806;28;20046;-86
2023/05/04 10:29:49;;;;;;;6.63;5.85;;;;;;;;;;10341158;28;20213;-86
2023/05/04 10:34:52;;;;;;;5.72;5.10;;;;;;;;;;10343855;28;20038;-87
2023/05/04 10:39:55;;;;;;;7.65;5.70;;;;;;;;;;10349036;28;20107;-87
2023/05/04 10:44:59;;;;;;;7.28;5.60;;;;;;;;;;10351441;28;20042;-86
2023/05/04 10:50:03;;;;;;;6.47;5.40;;;;;;;;;;10347551;28;20061;-87
2023/05/04 10:55:07;;;;;;;6.18;5.18;;;;;;;;;;10360799;28;20371;-86
2023/05/04 11:00:13;;;;;;;5.55;5.03;;;;;;;;;;10348749;28;20088;-86
2023/05/04 11:05:18;;;;;;;6.35;5.15;;;;;;;;;;10352020;28;20060;-85
2023/05/04 11:10:22;;;;;;;7.35;5.57;;;;;;;;;;10345571;28;20045;-84
2023/05/04 11:15:26;;;;;;;6.20;5.60;;;;;;;;;;10348732;28;20046;-85
2023/05/04 11:20:29;;;;;;;5.75;4.85;;;;;;;;;;10358021;28;20045;-85
2023/05/04 11:25:34;;;;;;;7.13;4.90;;;;;;;;;;10357222;28;20038;-86
2023/05/04 11:30:40;;;;;;;7.20;4.95;;;;;;;;;;10348052;28;20519;-86
2023/05/04 11:35:43;;;;;;;6.05;5.45;;;;;;;;;;10353970;28;20054;-85
2023/05/04 11:40:47;;;;;;;6.53;4.95;;;;;;;;;;10353397;28;20145;-85
2023/05/04 11:45:54;;;;;;;6.95;5.18;;;;;;;;;;10358362;28;20038;-84
2023/05/04 11:50:57;;;;;;;8.88;5.70;;;;;;;;;;10344843;28;20073;-85
2023/05/04 11:56:02;;;;;;;8.70;6.47;;;;;;;;;;10357195;28;20049;-84
2023/05/04 12:01:06;;;;;;;7.88;5.65;;;;;;;;;;10353125;28;20046;-84
2023/05/04 12:06:09;;;;;;;6.32;4.82;;;;;;;;;;10357398;28;20038;-84
2023/05/04 12:11:13;;;;;;;6.75;5.30;;;;;;;;;;10354582;28;20088;-84
2023/05/04 12:16:18;;;;;;;6.57;5.00;;;;;;;;;;10348948;28;20073;-84
2023/05/04 12:21:21;;;;;;;7.15;4.82;;;;;;;;;;10354174;28;20054;-84
2023/05/04 12:26:24;;;;;;;6.95;5.10;;;;;;;;;;10339044;28;20034;-83
2023/05/04 12:31:29;;;;;;;8.65;5.50;;;;;;;;;;10348744;28;20471;-84
2023/05/04 12:36:32;;;;;;;8.48;5.30;;;;;;;;;;10342937;28;20056;-84
2023/05/04 12:41:35;;;;;;;6.90;4.70;;;;;;;;;;10352539;28;20397;-84
2023/05/04 12:46:39;;;;;;;8.73;5.15;;;;;;;;;;10350143;28;20057;-84
2023/05/04 12:51:42;;;;;;;7.47;4.70;;;;;;;;;;10344755;28;20046;-85
2023/05/04 12:56:44;;;;;;;8.00;4.30;;;;;;;;;;10353209;28;20046;-84
2023/05/04 13:01:49;;;;;;;8.55;3.97;;;;;;;;;;10353413;28;20308;-84
2023/05/04 13:06:52;;;;;;;6.07;4.32;;;;;;;;;;10344268;28;20419;-82
2023/05/04 13:11:54;;;;;;;6.18;4.15;;;;;;;;;;10350223;28;20483;-83
2023/05/04 13:16:58;;;;;;;9.10;5.35;;;;;;;;;;10352657;28;20057;-85
2023/05/04 13:22:01;;;;;;;7.97;5.45;;;;;;;;;;10349542;28;20471;-85
2023/05/04 13:27:04;;;;;;;7.00;4.53;;;;;;;;;;10349409;28;20099;-83
2023/05/04 13:32:08;;;;;;;7.57;4.70;;;;;;;;;;10344927;28;21528;-83
2023/05/04 13:37:15;;;;;;;8.95;5.10;;;;;;;;;;10346585;28;20038;-84
2023/05/04 13:42:18;;;;;;;8.68;5.20;;;;;;;;;;10342098;28;20128;-85
2023/05/04 13:47:22;;;;;;;8.35;3.95;;;;;;;;;;10347307;28;20046;-85
2023/05/04 13:52:25;;;;;;;6.53;4.78;;;;;;;;;;10345494;28;20071;-84
2023/05/04 13:57:28;;;;;;;8.60;4.72;;;;;;;;;;10337980;28;20149;-85
2023/05/04 14:02:33;;;;;;;9.82;4.80;;;;;;;;;;10345705;28;20440;-85
2023/05/04 14:07:36;;;;;;;10.80;4.88;;;;;;;;;;10342397;28;20104;-83
2023/05/04 14:12:39;;;;;;;9.65;4.75;;;;;;;;;;10342979;28;20420;-84
2023/05/04 14:17:43;;;;;;;9.93;4.35;;;;;;;;;;10345615;28;20292;-83
2023/05/04 14:22:46;;;;;;;7.22;4.30;;;;;;;;;;10342560;28;20060;-84
2023/05/04 14:27:48;;;;;;;9.02;4.72;;;;;;;;;;10348544;28;20094;-83
2023/05/04 14:32:55;;;;;;;6.78;4.25;;;;;;;;;;10348295;28;20089;-84
2023/05/04 14:37:58;;;;;;;7.88;4.50;;;;;;;;;;10366506;28;20042;-87
2023/05/04 14:43:01;;;;;;;7.75;4.13;;;;;;;;;;10342998;28;20038;-82
2023/05/04 14:48:07;;;;;;;7.40;4.50;;;;;;;;;;10347691;28;20050;-82
2023/05/04 14:53:10;;;;;;;8.70;4.28;;;;;;;;;;10349428;28;20647;-83
2023/05/04 14:58:14;;;;;;;7.43;3.40;;;;;;;;;;10349036;28;20042;-83
2023/05/04 15:03:18;;;;;;;6.55;3.70;;;;;;;;;;10359640;28;20050;-82
2023/05/04 15:08:21;;;;;;;7.95;3.60;;;;;;;;;;10359832;28;20058;-82
2023/05/04 15:13:23;;;;;;;10.80;5.15;;;;;;;;;;10358346;28;20046;-83
2023/05/04 15:18:28;;;;;;;7.35;3.70;;;;;;;;;;10353676;28;20084;-83
2023/05/04 15:23:31;;;;;;;7.18;3.70;;;;;;;;;;10351142;28;20053;-83
2023/05/04 15:28:33;;;;;;;6.55;3.75;;;;;;;;;;10348824;28;20040;-82
2023/05/04 15:33:37;;;;;;;6.10;3.67;;;;;;;;;;10357277;28;20052;-81
2023/05/04 15:38:41;;;;;;;7.20;3.75;;;;;;;;;;10352689;28;20463;-83
2023/05/04 15:43:43;;;;;;;8.02;3.97;;;;;;;;;;10348551;28;20049;-83
2023/05/04 15:48:48;;;;;;;8.48;4.03;;;;;;;;;;10354419;28;20473;-84
2023/05/04 15:53:50;;;;;;;8.75;3.67;;;;;;;;;;10352491;28;20117;-84
2023/05/04 15:58:53;;;;;;;8.38;3.83;;;;;;;;;;10351360;28;20407;-83
2023/05/04 16:03:58;;;;;;;8.68;4.15;;;;;;;;;;10346937;28;20057;-83
2023/05/04 16:09:01;;;;;;;13.15;4.00;;;;;;;;;;10354318;28;20046;-83
2023/05/04 16:14:04;;;;;;;10.00;3.88;;;;;;;;;;10358306;28;20030;-83
2023/05/04 16:19:08;;;;;;;11.98;4.18;;;;;;;;;;10357017;28;20053;-84
2023/05/04 16:24:13;;;;;;;9.15;4.03;;;;;;;;;;10354295;28;20475;-84
2023/05/04 16:29:16;;;;;;;7.90;4.28;;;;;;;;;;10346864;28;20080;-85
2023/05/04 16:34:20;;;;;;;9.65;3.30;;;;;;;;;;10346225;28;20053;-84
2023/05/04 16:39:26;;;;;;;9.02;4.15;;;;;;;;;;10353239;28;20137;-82
2023/05/04 16:44:30;;;;;;;8.80;3.97;;;;;;;;;;10354022;28;20042;-83
2023/05/04 16:49:34;;;;;;;5.95;3.30;;;;;;;;;;10355897;28;20038;-82
2023/05/04 16:54:36;;;;;;;5.57;2.90;;;;;;;;;;10355808;28;20038;-84
2023/05/04 16:59:39;;;;;;;6.55;3.38;;;;;;;;;;10353987;28;20035;-83
2023/05/04 17:04:43;;;;;;;6.22;3.25;;;;;;;;;;10355495;28;20053;-83
2023/05/04 17:09:46;;;;;;;8.77;3.35;;;;;;;;;;10359787;28;20470;-83
2023/05/04 17:14:48;;;;;;;8.33;3.47;;;;;;;;;;10349454;28;20108;-83
2023/05/04 17:19:52;;;;;;;6.83;3.53;;;;;;;;;;10356192;28;20046;-84
2023/05/04 17:24:55;;;;;;;9.93;3.30;;;;;;;;;;10349651;28;20048;-83
2023/05/04 17:29:57;;;;;;;7.60;3.47;;;;;;;;;;10347563;28;20111;-83
2023/05/04 17:35:02;;;;;;;6.07;2.80;;;;;;;;;;10340749;28;20053;-82
2023/05/04 17:40:22;;;;;;;5.07;2.85;;;;;;;;;;10345861;28;20042;-83
2023/05/04 17:45:25;;;;;;;6.38;2.80;;;;;;;;;;10349805;28;20033;-82
2023/05/04 17:50:29;;;;;;;9.32;3.17;;;;;;;;;;10353456;28;20452;-83
2023/05/04 17:55:32;;;;;;;5.18;2.78;;;;;;;;;;10354104;28;20061;-83
2023/05/04 18:00:35;;;;;;;7.05;2.75;;;;;;;;;;10351749;28;20058;-83
2023/05/04 18:05:38;;;;;;;;;;;;;;;;;;10352798;28;20113;-84
2023/05/04 18:10:42;;;;;;;4.88;2.60;;;;;;;;;;10345169;28;20252;-83
2023/05/04 18:15:44;;;;;;;5.57;2.55;;;;;;;;;;10346540;28;20046;-82
2023/05/04 18:20:47;;;;;;;5.75;3.00;;;;;;;;;;10347359;28;20062;-83
2023/05/04 18:25:51;;;;;;;7.70;2.77;;;;;;;;;;10349924;28;20926;-85
2023/05/04 18:30:54;;;;;;;6.35;2.90;;;;;;;;;;10347880;28;20054;-84
2023/05/04 18:35:56;;;;;;;5.50;2.92;;;;;;;;;;10355918;28;20042;-84
2023/05/04 18:41:00;;;;;;;7.90;2.67;;;;;;;;;;10352064;28;20052;-84
2023/05/04 18:46:06;;;;;;;5.65;3.00;;;;;;;;;;10353435;28;20113;-83
2023/05/04 18:51:11;;;;;;;5.03;2.85;;;;;;;;;;10347949;28;20038;-84
2023/05/04 18:56:15;;;;;;;5.30;2.60;;;;;;;;;;10347082;28;20042;-85
2023/05/04 19:01:18;;;;;;;6.13;2.90;;;;;;;;;;10356060;28;20041;-83
2023/05/04 19:06:20;;;;;;;5.82;2.80;;;;;;;;;;10345061;28;20129;-84
2023/05/04 19:11:25;;;;;;;6.43;2.97;;;;;;;;;;10358563;28;20078;-83
2023/05/04 19:16:28;;;;;;;7.38;3.08;;;;;;;;;;10355399;28;20042;-81
2023/05/04 19:21:30;;;;;;;6.40;2.90;;;;;;;;;;10352025;28;20838;-83
2023/05/04 19:26:35;;;;;;;10.73;4.43;;;;;;;;;;10354339;28;20197;-84
2023/05/04 19:31:38;;;;;;;6.88;3.17;;;;;;;;;;10379767;28;20053;-84
2023/05/04 19:36:41;;;;;;;5.70;3.03;;;;;;;;;;10374475;28;20085;-82
2023/05/04 19:41:45;;;;;;;6.50;2.77;;;;;;;;;;10360028;28;20133;-83
2023/05/04 19:46:50;;;;;;;6.13;2.75;;;;;;;;;;10351427;28;20060;-83
2023/05/04 19:51:53;;;;;;;7.88;2.88;;;;;;;;;;10353831;28;20050;-82
2023/05/04 19:56:57;;;;;;;8.33;3.03;;;;;;;;;;10349647;28;20046;-82
2023/05/04 20:01:59;;;;;;;6.53;3.00;;;;;;;;;;10346819;28;20054;-83
2023/05/04 20:07:03;;;;;;;7.80;2.40;;;;;;;;;;10351978;28;20352;-81
2023/05/04 20:12:07;;;;;;;7.10;3.20;;;;;;;;;;10341030;28;20053;-82
2023/05/04 20:17:10;;;;;;;9.40;2.95;;;;;;;;;;10339403;28;20193;-84
2023/05/04 20:22:13;;;;;;;4.82;2.10;;;;;;;;;;10340988;28;20408;-83
2023/05/04 20:27:17;;;;;;;5.18;2.90;;;;;;;;;;10350884;28;20057;-82
2023/05/04 20:32:20;;;;;;;9.00;2.45;;;;;;;;;;10349792;28;20037;-83
2023/05/04 20:37:22;;;;;;;7.50;3.22;;;;;;;;;;10352952;28;20042;-86
2023/05/04 20:42:27;;;;;;;8.40;3.03;;;;;;;;;;10352458;28;20093;-84
2023/05/04 20:47:29;;;;;;;7.68;2.88;;;;;;;;;;10354543;28;20034;-85
2023/05/04 20:52:32;;;;;;;5.43;2.67;;;;;;;;;;10350238;28;20080;-84
2023/05/04 20:57:36;;;;;;;8.70;3.20;;;;;;;;;;10356169;28;20151;-84
2023/05/04 21:02:39;;;;;;;7.15;2.85;;;;;;;;;;10351288;28;20092;-85
2023/05/04 21:07:41;;;;;;;5.10;2.63;;;;;;;;;;10350899;28;20341;-84
2023/05/04 21:12:46;;;;;;;6.88;2.72;;;;;;;;;;10349176;28;20404;-81
2023/05/04 21:17:49;;;;;;;7.05;2.60;;;;;;;;;;10349545;28;20128;-83
2023/05/04 21:22:52;;;;;;;6.93;2.80;;;;;;;;;;10348425;28;20111;-85
2023/05/04 21:27:57;;;;;;;8.15;2.90;;;;;;;;;;10346366;28;20042;-84
2023/05/04 21:33:00;;;;;;;6.80;3.35;;;;;;;;;;10346130;28;20038;-86
2023/05/04 21:38:03;;;;;;;7.78;3.83;;;;;;;;;;10354039;28;20450;-85
2023/05/04 21:43:08;;;;;;;5.87;2.73;;;;;;;;;;10361252;28;20096;-85
2023/05/04 21:48:11;;;;;;;5.72;2.47;;;;;;;;;;10359917;28;20050;-84
2023/05/04 21:53:14;;;;;;;5.13;2.85;;;;;;;;;;10356348;28;20553;-84
2023/05/04 21:58:20;;;;;;;6.07;2.45;;;;;;;;;;10363510;28;20042;-85
2023/05/04 22:03:23;;;;;;;6.38;2.50;;;;;;;;;;10358336;28;20548;-85
2023/05/04 22:08:27;;;;;;;5.00;2.70;;;;;;;;;;10368832;28;20037;-83
2023/05/04 22:13:37;;;;;;;7.05;2.67;;;;;;;;;;10354147;28;20448;-84
2023/05/04 22:18:40;;;;;;;6.30;2.45;;;;;;;;;;10352636;28;20456;-84
2023/05/04 22:23:43;;;;;;;8.43;2.88;;;;;;;;;;10359455;28;20057;-84
2023/05/04 22:28:48;;;;;;;7.78;3.03;;;;;;;;;;10357412;28;20053;-86
2023/05/04 22:33:52;;;;;;;4.95;2.42;;;;;;;;;;10357567;28;20475;-87
2023/05/04 22:38:55;;;;;;;5.45;2.38;;;;;;;;;;10355383;28;20042;-85
2023/05/04 22:44:02;;;;;;;7.68;3.47;;;;;;;;;;10344304;28;20049;-84
2023/05/04 22:49:06;;;;;;;6.68;3.03;;;;;;;;;;10357570;28;20046;-85
2023/05/04 22:54:10;;;;;;;11.25;3.28;;;;;;;;;;10362696;28;20045;-83
2023/05/04 22:59:15;;;;;;;7.10;2.63;;;;;;;;;;10348999;28;20042;-83
2023/05/04 23:04:17;;;;;;;7.07;3.00;;;;;;;;;;10353214;28;20296;-84
2023/05/04 23:09:21;;;;;;;9.48;2.85;;;;;;;;;;10353307;28;20031;-83
2023/05/04 23:14:26;;;;;;;7.78;3.47;;;;;;;;;;10355233;28;20053;-83
2023/05/04 23:19:30;;;;;;;7.60;3.17;;;;;;;;;;10362186;28;20092;-84
2023/05/04 23:24:33;;;;;;;7.53;2.78;;;;;;;;;;10378038;28;20048;-84
2023/05/04 23:29:38;;;;;;;6.05;2.90;;;;;;;;;;10360057;28;20487;-84
2023/05/04 23:34:41;;;;;;;7.57;3.10;;;;;;;;;;10357275;28;20049;-85
2023/05/04 23:39:45;;;;;;;6.43;3.08;;;;;;;;;;10353263;28;20118;-85
2023/05/04 23:44:49;;;;;;;11.90;3.45;;;;;;;;;;10362402;28;20394;-83
2023/05/04 23:49:52;;;;;;;9.48;2.75;;;;;;;;;;10346857;28;20043;-85
2023/05/04 23:54:55;;;;;;;6.22;2.80;;;;;;;;;;10353189;28;20049;-85
2023/05/04 23:59:59;;;;;;;7.20;3.50;;;;;;;;;;10356321;28;20041;-85
